createdAt,value
2023-03-21T00:00:39.855Z,84.14
2023-03-21T00:04:22.834Z,84.13
2023-03-21T00:07:49.929Z,84.31
2023-03-21T00:11:17.291Z,84.24
2023-03-21T00:14:44.876Z,84.39
2023-03-21T00:18:12.062Z,84.58
2023-03-21T00:22:03.276Z,84.66
2023-03-21T00:25:29.492Z,84.69
2023-03-21T00:28:56.556Z,84.74
2023-03-21T00:32:24.662Z,84.93
2023-03-21T00:36:02.260Z,84.82
2023-03-21T00:39:30.114Z,84.96
2023-03-21T00:42:57.121Z,84.91
2023-03-21T00:46:27.596Z,84.98
2023-03-21T00:49:57.324Z,84.86
2023-03-21T00:53:24.811Z,84.83
2023-03-21T00:56:51.995Z,84.81
2023-03-21T01:00:21.391Z,84.75
2023-03-21T01:03:51.008Z,84.85
2023-03-21T01:07:18.283Z,84.76
2023-03-21T01:10:47.419Z,84.74
2023-03-21T01:14:22.522Z,84.74
2023-03-21T01:17:50.531Z,84.77
2023-03-21T01:21:18.222Z,84.75
2023-03-21T01:24:53.763Z,84.66
2023-03-21T01:28:22.872Z,84.53
2023-03-21T01:31:50.357Z,84.52
2023-03-21T01:35:18.204Z,84.47
2023-03-21T01:38:45.801Z,84.43
2023-03-21T01:42:16.303Z,84.42
2023-03-21T01:46:21.531Z,84.33
2023-03-21T01:50:09.044Z,84.07
2023-03-21T01:53:52.595Z,84.19
2023-03-21T01:57:35.341Z,84.19
2023-03-21T02:01:10.744Z,83.96
2023-03-21T02:04:56.131Z,83.95
2023-03-21T02:08:36.887Z,83.77
2023-03-21T02:12:10.463Z,83.66
2023-03-21T02:15:39.663Z,83.72
2023-03-21T02:19:52.917Z,83.74
2023-03-21T02:24:00.985Z,83.83
2023-03-21T02:27:30.322Z,83.68
2023-03-21T02:31:23.839Z,83.70
2023-03-21T02:35:16.051Z,83.72
2023-03-21T02:38:49.252Z,83.70
2023-03-21T02:42:22.910Z,83.66
2023-03-21T02:45:54.731Z,83.42
2023-03-21T02:49:28.603Z,83.49
2023-03-21T02:52:58.233Z,83.52
2023-03-21T02:56:28.700Z,83.27
2023-03-21T03:00:00.406Z,83.59
2023-03-21T03:03:38.946Z,83.51
2023-03-21T03:07:31.240Z,83.53
2023-03-21T03:11:13.364Z,83.56
2023-03-21T03:15:02.988Z,83.45
2023-03-21T03:18:42.918Z,83.54
2023-03-21T03:22:14.760Z,83.66
2023-03-21T03:25:49.132Z,83.63
2023-03-21T03:29:19.462Z,83.63
2023-03-21T03:32:50.261Z,83.44
2023-03-21T03:36:31.068Z,83.73
2023-03-21T03:40:05.826Z,83.67
2023-03-21T03:43:40.823Z,83.72
2023-03-21T03:47:17.426Z,83.85
2023-03-21T03:50:58.626Z,84.03
2023-03-21T03:54:38.282Z,84.04
2023-03-21T03:58:10.629Z,84.50
2023-03-21T04:01:47.096Z,84.39
2023-03-21T04:05:14.585Z,84.51
2023-03-21T04:08:41.993Z,84.58
2023-03-21T04:12:09.369Z,84.62
2023-03-21T04:15:37.443Z,84.88
2023-03-21T04:19:10.978Z,84.94
2023-03-21T04:22:38.084Z,85.26
2023-03-21T04:26:05.866Z,85.21
2023-03-21T04:29:39.675Z,85.18
2023-03-21T04:33:32.927Z,85.82
2023-03-21T04:36:59.973Z,85.80
2023-03-21T04:40:27.780Z,85.81
2023-03-21T04:43:56.565Z,86.13
2023-03-21T04:47:24.096Z,86.15
2023-03-21T04:50:51.658Z,86.22
2023-03-21T04:54:19.132Z,86.05
2023-03-21T04:57:46.186Z,86.21
2023-03-21T05:01:14.702Z,86.29
2023-03-21T05:04:42.487Z,86.38
2023-03-21T05:08:09.725Z,86.43
2023-03-21T05:11:38.796Z,86.20
2023-03-21T05:15:07.028Z,86.46
2023-03-21T05:18:38.693Z,86.68
2023-03-21T05:22:12.240Z,86.67
2023-03-21T05:25:40.339Z,86.92
2023-03-21T05:29:13.939Z,86.90
2023-03-21T05:32:42.724Z,86.85
2023-03-21T05:36:12.921Z,87.04
2023-03-21T05:39:40.401Z,87.28
2023-03-21T05:43:12.359Z,87.32
2023-03-21T05:46:40.018Z,87.43
2023-03-21T05:50:08.510Z,87.68
2023-03-21T05:53:36.401Z,87.47
2023-03-21T05:57:04.813Z,87.94
2023-03-21T06:00:58.746Z,87.82
2023-03-21T06:04:29.733Z,87.85
2023-03-21T06:07:57.026Z,87.72
2023-03-21T06:11:28.421Z,87.74
2023-03-21T06:15:14.098Z,87.74
2023-03-21T06:18:54.775Z,87.62
2023-03-21T06:22:34.953Z,87.55
2023-03-21T06:26:02.542Z,87.44
2023-03-21T06:29:31.339Z,87.50
2023-03-21T06:32:58.596Z,87.64
2023-03-21T06:36:26.279Z,87.64
2023-03-21T06:39:55.400Z,87.43
2023-03-21T06:43:23.177Z,87.36
2023-03-21T06:46:50.710Z,87.36
2023-03-21T06:50:19.420Z,87.28
2023-03-21T06:53:46.803Z,87.16
2023-03-21T06:57:25.436Z,87.18
2023-03-21T07:00:53.967Z,87.11
2023-03-21T07:04:21.449Z,87.12
2023-03-21T07:07:49.075Z,87.12
2023-03-21T07:11:16.390Z,87.03
2023-03-21T07:14:46.895Z,86.97
2023-03-21T07:18:13.937Z,86.85
2023-03-21T07:21:43.117Z,86.88
2023-03-21T07:25:12.109Z,86.74
2023-03-21T07:28:40.071Z,86.82
2023-03-21T07:32:07.811Z,86.76
2023-03-21T07:35:36.659Z,86.69
2023-03-21T07:39:05.120Z,86.54
2023-03-21T07:46:04.235Z,86.43
2023-03-21T07:49:31.577Z,86.19
2023-03-21T07:52:58.663Z,86.20
2023-03-21T07:56:25.870Z,86.08
2023-03-21T07:59:53.020Z,85.90
2023-03-21T08:03:20.253Z,85.96
2023-03-21T08:06:48.054Z,85.73
2023-03-21T08:10:17.687Z,85.62
2023-03-21T08:13:54.241Z,85.17
2023-03-21T08:17:24.253Z,85.12
2023-03-21T08:20:57.104Z,85.02
2023-03-21T08:24:24.434Z,84.70
2023-03-21T08:27:56.752Z,84.51
2023-03-21T08:31:25.801Z,84.58
2023-03-21T08:34:53.730Z,84.73
2023-03-21T08:38:21.618Z,84.66
2023-03-21T08:41:51.453Z,84.54
2023-03-21T08:45:20.683Z,84.49
2023-03-21T08:48:47.839Z,84.32
2023-03-21T08:52:15.792Z,84.24
2023-03-21T08:55:42.953Z,83.92
2023-03-21T08:59:10.320Z,83.78
2023-03-21T09:02:37.486Z,83.86
2023-03-21T09:06:04.859Z,83.53
2023-03-21T09:09:32.978Z,83.17
2023-03-21T09:13:00.202Z,83.12
2023-03-21T09:16:27.568Z,82.85
2023-03-21T09:19:54.745Z,82.65
2023-03-21T09:23:21.834Z,82.36
2023-03-21T09:26:51.730Z,81.93
2023-03-21T09:30:23.726Z,81.30
2023-03-21T09:33:53.289Z,81.27
2023-03-21T09:37:22.470Z,80.74
2023-03-21T09:41:05.092Z,80.70
2023-03-21T09:44:45.038Z,80.05
2023-03-21T09:48:31.465Z,80.25
2023-03-21T09:52:03.564Z,80.02
2023-03-21T09:55:35.107Z,79.55
2023-03-21T09:59:05.081Z,79.21
2023-03-21T10:02:40.232Z,78.87
2023-03-21T10:06:13.215Z,78.70
2023-03-21T10:09:42.292Z,77.86
2023-03-21T10:13:16.819Z,77.42
2023-03-21T10:16:48.010Z,76.78
2023-03-21T10:20:21.440Z,76.21
2023-03-21T10:23:52.084Z,76.18
2023-03-21T10:27:19.346Z,75.28
2023-03-21T10:30:50.229Z,74.79
2023-03-21T10:34:21.794Z,74.25
2023-03-21T10:37:49.748Z,73.46
2023-03-21T10:41:17.228Z,73.42
2023-03-21T10:44:50.384Z,73.27
2023-03-21T10:48:18.078Z,73.32
2023-03-21T10:51:47.303Z,72.97
2023-03-21T10:55:24.385Z,72.25
2023-03-21T10:58:53.975Z,72.52
2023-03-21T11:02:26.504Z,72.48
2023-03-21T11:05:58.015Z,71.46
2023-03-21T11:09:26.116Z,71.13
2023-03-21T11:12:57.482Z,70.83
2023-03-21T11:16:33.310Z,70.72
2023-03-21T11:20:05.085Z,70.50
2023-03-21T11:23:35.598Z,69.77
2023-03-21T11:27:07.536Z,69.54
2023-03-21T11:30:34.932Z,68.73
2023-03-21T11:34:06.859Z,68.34
2023-03-21T11:37:46.367Z,69.02
2023-03-21T11:41:23.560Z,68.28
2023-03-21T11:45:04.840Z,67.57
2023-03-21T11:48:33.355Z,67.39
2023-03-21T11:52:16.174Z,66.24
2023-03-21T11:55:55.418Z,66.10
2023-03-21T11:59:38.145Z,65.89
2023-03-21T12:03:48.602Z,65.54
2023-03-21T12:07:34.045Z,65.48
2023-03-21T12:11:09.681Z,64.46
2023-03-21T12:14:46.619Z,65.03
2023-03-21T12:18:27.145Z,64.59
2023-03-21T12:22:09.309Z,64.51
2023-03-21T12:25:41.687Z,64.29
2023-03-21T12:29:31.143Z,64.48
2023-03-21T12:33:15.736Z,63.93
2023-03-21T12:37:07.675Z,64.19
2023-03-21T12:40:51.189Z,63.75
2023-03-21T12:44:22.507Z,63.51
2023-03-21T12:47:57.227Z,63.76
2023-03-21T12:51:32.585Z,63.05
2023-03-21T12:55:04.820Z,62.62
2023-03-21T12:58:39.142Z,62.63
2023-03-21T13:02:18.984Z,61.78
2023-03-21T13:05:50.121Z,62.00
2023-03-21T13:09:36.740Z,62.38
2023-03-21T13:13:20.889Z,62.50
2023-03-21T13:16:56.274Z,62.70
2023-03-21T13:20:32.282Z,63.11
2023-03-21T13:24:19.702Z,62.92
2023-03-21T13:27:56.037Z,62.81
2023-03-21T13:31:32.024Z,63.13
2023-03-21T13:35:19.466Z,63.25
2023-03-21T13:38:54.071Z,63.22
2023-03-21T13:42:32.446Z,62.80
2023-03-21T13:46:09.398Z,63.02
2023-03-21T13:49:39.118Z,63.51
2023-03-21T13:53:19.578Z,62.78
2023-03-21T13:57:00.007Z,63.36
2023-03-21T14:00:35.692Z,63.49
2023-03-21T14:04:11.721Z,63.72
2023-03-21T14:07:44.233Z,63.59
2023-03-21T14:11:17.444Z,63.72
2023-03-21T14:14:48.630Z,63.83
2023-03-21T14:18:28.240Z,63.68
2023-03-21T14:22:14.571Z,63.39
2023-03-21T14:25:47.518Z,63.17
2023-03-21T14:29:26.772Z,63.77
2023-03-21T14:32:57.724Z,63.70
2023-03-21T14:36:28.722Z,63.22
2023-03-21T14:40:02.942Z,63.13
2023-03-21T14:43:34.103Z,62.61
2023-03-21T14:47:05.856Z,63.19
2023-03-21T14:50:39.877Z,62.91
2023-03-21T14:54:07.671Z,62.50
2023-03-21T14:57:35.931Z,62.52
2023-03-21T15:01:05.706Z,63.16
2023-03-21T15:04:34.144Z,63.06
2023-03-21T15:08:03.128Z,63.09
2023-03-21T15:11:35.495Z,63.40
2023-03-21T15:15:04.002Z,63.48
2023-03-21T15:18:34.255Z,63.84
2023-03-21T15:22:07.318Z,64.00
2023-03-21T15:25:38.636Z,64.13
2023-03-21T15:29:09.208Z,64.16
2023-03-21T15:32:39.138Z,64.16
2023-03-21T15:36:12.721Z,64.41
2023-03-21T15:39:39.959Z,64.80
2023-03-21T15:43:17.443Z,65.04
2023-03-21T15:46:48.254Z,65.25
2023-03-21T15:50:26.772Z,65.72
2023-03-21T15:53:55.891Z,65.74
2023-03-21T15:57:25.900Z,65.91
2023-03-21T16:00:55.668Z,66.24
2023-03-21T16:04:24.437Z,66.77
2023-03-21T16:07:52.247Z,66.94
2023-03-21T16:11:25.630Z,67.28
2023-03-21T16:14:53.201Z,67.65
2023-03-21T16:18:22.874Z,67.92
2023-03-21T16:21:48.559Z,68.21
2023-03-21T16:25:16.052Z,68.48
2023-03-21T16:28:43.713Z,68.62
2023-03-21T16:32:17.121Z,68.88
2023-03-21T16:35:44.341Z,68.99
2023-03-21T16:39:21.090Z,69.03
2023-03-21T16:42:48.402Z,69.02
2023-03-21T16:46:17.905Z,69.42
2023-03-21T16:49:47.963Z,69.35
2023-03-21T16:53:17.298Z,69.75
2023-03-21T16:56:47.561Z,69.90
2023-03-21T17:00:20.891Z,70.07
2023-03-21T17:03:48.770Z,70.25
2023-03-21T17:07:16.298Z,70.63
2023-03-21T17:10:44.146Z,71.05
2023-03-21T17:14:16.965Z,71.33
2023-03-21T17:17:44.744Z,71.21
2023-03-21T17:21:16.407Z,71.24
2023-03-21T17:24:43.821Z,71.57
2023-03-21T17:28:11.844Z,71.47
2023-03-21T17:31:40.297Z,71.71
2023-03-21T17:35:08.880Z,71.88
2023-03-21T17:38:39.431Z,71.96
2023-03-21T17:42:16.500Z,72.18
2023-03-21T17:45:44.311Z,72.29
2023-03-21T17:49:14.447Z,72.30
2023-03-21T17:52:42.125Z,72.39
2023-03-21T17:56:16.233Z,72.54
2023-03-21T17:59:44.198Z,72.78
2023-03-21T18:03:11.607Z,72.76
2023-03-21T18:06:39.070Z,72.87
2023-03-21T18:10:07.463Z,72.74
2023-03-21T18:13:35.767Z,72.86
2023-03-21T18:17:04.828Z,72.92
2023-03-21T18:24:22.341Z,73.19
2023-03-21T18:28:10.190Z,73.25
2023-03-21T18:31:38.809Z,73.20
2023-03-21T18:35:07.076Z,73.27
2023-03-21T18:38:34.250Z,73.53
2023-03-21T18:42:04.498Z,73.63
2023-03-21T18:45:34.782Z,73.53
2023-03-21T18:49:33.730Z,73.77
2023-03-21T18:52:49.756Z,73.96
2023-03-21T19:00:09.627Z,74.28
2023-03-21T19:03:37.790Z,74.39
2023-03-21T19:07:08.088Z,74.63
2023-03-21T19:10:37.860Z,74.57
2023-03-21T19:14:06.702Z,74.80
2023-03-21T19:21:22.024Z,74.98
2023-03-21T19:24:50.275Z,74.99
2023-03-21T19:28:17.542Z,75.25
2023-03-21T19:31:46.520Z,75.27
2023-03-21T19:35:15.179Z,75.54
2023-03-21T19:38:43.331Z,75.68
2023-03-21T19:42:16.948Z,75.86
2023-03-21T19:45:47.940Z,75.94
2023-03-21T19:49:20.152Z,75.99
2023-03-21T19:52:47.277Z,76.09
2023-03-21T19:56:22.495Z,76.13
2023-03-21T19:59:54.985Z,76.34
2023-03-21T20:03:23.013Z,76.36
2023-03-21T20:06:50.803Z,76.37
2023-03-21T20:10:18.724Z,76.39
2023-03-21T20:13:46.679Z,76.40
2023-03-21T20:17:17.136Z,76.48
2023-03-21T20:20:44.817Z,76.66
2023-03-21T20:24:13.074Z,76.67
2023-03-21T20:27:41.559Z,76.83
2023-03-21T20:31:09.838Z,76.85
2023-03-21T20:34:40.368Z,77.25
2023-03-21T20:38:09.734Z,77.19
2023-03-21T20:41:37.027Z,77.17
2023-03-21T20:45:04.034Z,77.38
2023-03-21T20:48:31.773Z,77.54
2023-03-21T20:55:47.314Z,77.67
2023-03-21T20:59:24.563Z,77.78
2023-03-21T21:02:54.090Z,77.91
2023-03-21T21:06:23.009Z,78.13
2023-03-21T21:09:51.430Z,78.24
2023-03-21T21:13:19.679Z,78.41
2023-03-21T21:16:47.857Z,78.31
2023-03-21T21:20:17.711Z,78.32
2023-03-21T21:23:43.609Z,78.30
2023-03-21T21:27:10.899Z,78.34
2023-03-21T21:30:41.376Z,78.48
2023-03-21T21:34:08.677Z,78.42
2023-03-21T21:37:35.862Z,78.47
2023-03-21T21:41:04.339Z,78.53
2023-03-21T21:44:31.653Z,78.62
2023-03-21T21:47:59.005Z,78.53
2023-03-21T21:51:27.187Z,78.37
2023-03-21T21:54:54.638Z,78.53
2023-03-21T21:58:22.058Z,78.60
2023-03-21T22:01:51.291Z,78.49
2023-03-21T22:05:19.527Z,78.40
2023-03-21T22:08:48.363Z,78.46
2023-03-21T22:12:16.919Z,78.55
2023-03-21T22:15:44.539Z,78.66
2023-03-21T22:19:12.263Z,78.57
2023-03-21T22:22:43.113Z,78.53
2023-03-21T22:26:11.947Z,78.58
2023-03-21T22:29:39.365Z,78.54
2023-03-21T22:33:09.988Z,78.73
2023-03-21T22:36:38.184Z,78.54
2023-03-21T22:40:08.329Z,78.34
2023-03-21T22:43:35.808Z,78.52
2023-03-21T22:47:03.071Z,78.44
2023-03-21T22:50:31.285Z,78.46
2023-03-21T22:53:59.342Z,78.55
2023-03-21T22:57:27.003Z,78.50
2023-03-21T23:00:54.336Z,78.61
2023-03-21T23:04:21.866Z,78.56
2023-03-21T23:07:49.212Z,78.73
2023-03-21T23:11:16.506Z,78.85
2023-03-21T23:14:43.560Z,79.10
2023-03-21T23:18:11.031Z,79.08
2023-03-21T23:21:38.477Z,79.25
2023-03-21T23:25:07.605Z,79.26
2023-03-21T23:28:34.824Z,79.48
2023-03-21T23:32:02.218Z,79.41
2023-03-21T23:35:30.031Z,79.46
2023-03-21T23:38:57.171Z,79.31
2023-03-21T23:42:25.189Z,79.37
2023-03-21T23:45:52.601Z,79.31
2023-03-21T23:49:20.684Z,79.13
2023-03-21T23:52:47.714Z,79.23
2023-03-21T23:56:19.769Z,79.19
2023-03-21T23:59:47.210Z,79.29
